Time;durP1;ratioP1;P1;durP2;ratioP2;P2;SDS_P1;SDS_P2;PMS_P1;PMS_P2;Temp;Humidity;BMP_temperature;BMP_pressure;BME280_temperature;BME280_humidity;BME280_pressure;Samples;Min_cycle;Max_cycle;Signal;HPM_P1;HPM_P2
2022/08/20 00:01:08;;;;;;;8.73;6.28;;;24.10;99.90;;;;;;5024983;28;20223;-76
2022/08/20 00:03:41;;;;;;;8.82;6.40;;;24.10;99.90;;;;;;5015982;28;20283;-75
2022/08/20 00:06:22;;;;;;;8.20;5.97;;;24.10;99.90;;;;;;5035207;28;20294;-76
2022/08/20 00:08:49;;;;;;;9.45;6.63;;;24.10;99.90;;;;;;5050516;28;20225;-75
2022/08/20 00:11:24;;;;;;;9.93;6.45;;;24.00;99.90;;;;;;5041033;28;20226;-76
2022/08/20 00:13:58;;;;;;;6.50;5.90;;;23.90;99.90;;;;;;5031044;28;20203;-76
2022/08/20 00:16:28;;;;;;;8.95;5.97;;;23.80;99.90;;;;;;5031849;28;20229;-76
2022/08/20 00:18:54;;;;;;;8.52;6.35;;;23.90;99.90;;;;;;5048492;28;20586;-75
2022/08/20 00:21:21;;;;;;;6.70;5.65;;;23.90;99.90;;;;;;5050109;28;20184;-76
2022/08/20 00:23:50;;;;;;;9.57;5.88;;;24.00;99.90;;;;;;5051212;28;20207;-76
2022/08/20 00:26:18;;;;;;;8.73;6.53;;;24.00;99.90;;;;;;5041330;28;20693;-76
2022/08/20 00:28:46;;;;;;;12.30;6.35;;;24.00;99.90;;;;;;5031890;28;20175;-76
2022/08/20 00:31:18;;;;;;;6.40;5.43;;;24.00;99.90;;;;;;5028968;28;20195;-76
2022/08/20 00:33:46;;;;;;;9.23;6.22;;;24.00;99.90;;;;;;5049864;28;20279;-75
2022/08/20 00:36:14;;;;;;;5.88;5.28;;;23.90;99.90;;;;;;5046643;28;20195;-75
2022/08/20 00:38:43;;;;;;;7.30;5.50;;;23.90;99.90;;;;;;5041754;28;20196;-75
2022/08/20 00:41:16;;;;;;;6.00;5.40;;;23.80;99.90;;;;;;5042446;28;20684;-75
2022/08/20 00:44:15;;;;;;;6.80;5.68;;;23.80;99.90;;;;;;5029582;28;20199;-75
2022/08/20 00:46:43;;;;;;;6.85;5.40;;;23.80;99.90;;;;;;5013490;28;20562;-76
2022/08/20 00:49:26;;;;;;;8.57;5.18;;;23.80;99.90;;;;;;5046805;28;20210;-76
2022/08/20 00:52:02;;;;;;;9.20;4.82;;;23.80;99.90;;;;;;5021209;28;20173;-76
2022/08/20 00:55:05;;;;;;;5.38;4.80;;;23.80;99.90;;;;;;5012748;28;20190;-76
2022/08/20 00:57:42;;;;;;;14.00;4.60;;;23.70;99.90;;;;;;5028209;28;20688;-76
2022/08/20 01:00:45;;;;;;;6.65;4.60;;;23.60;99.90;;;;;;5031581;28;20232;-76
2022/08/20 01:03:15;;;;;;;7.53;5.00;;;23.60;99.90;;;;;;5049491;28;20246;-76
2022/08/20 01:05:45;;;;;;;6.95;4.85;;;23.60;99.90;;;;;;5048545;28;20203;-76
2022/08/20 01:08:15;;;;;;;8.20;4.25;;;23.60;99.90;;;;;;5032311;28;20187;-76
2022/08/20 01:10:47;;;;;;;8.03;4.67;;;23.60;99.90;;;;;;5046561;28;20273;-76
2022/08/20 01:13:20;;;;;;;6.22;4.68;;;23.60;99.90;;;;;;5040040;28;20188;-76
2022/08/20 01:15:53;;;;;;;4.55;4.13;;;23.60;99.90;;;;;;5029418;28;20645;-76
2022/08/20 01:18:25;;;;;;;6.57;4.53;;;23.60;99.90;;;;;;5009745;28;20193;-76
2022/08/20 01:21:05;;;;;;;4.80;4.15;;;23.60;99.90;;;;;;4992904;28;20595;-76
2022/08/20 01:23:51;;;;;;;4.97;4.43;;;23.60;99.90;;;;;;5036416;28;20215;-76
2022/08/20 01:26:33;;;;;;;6.43;3.80;;;23.60;99.90;;;;;;5018198;28;20566;-76
2022/08/20 01:29:29;;;;;;;5.00;3.70;;;23.50;99.90;;;;;;5028614;28;20180;-76
2022/08/20 01:32:00;;;;;;;5.45;4.07;;;23.50;99.90;;;;;;5029063;28;20192;-76
2022/08/20 01:34:28;;;;;;;9.00;4.18;;;23.50;99.90;;;;;;5032874;28;20203;-76
2022/08/20 01:36:57;;;;;;;9.80;4.35;;;23.40;99.90;;;;;;5031991;28;20182;-76
2022/08/20 01:39:32;;;;;;;8.38;4.03;;;23.40;99.90;;;;;;5050313;28;20288;-76
2022/08/20 01:42:23;;;;;;;6.50;4.68;;;23.30;99.90;;;;;;5035368;28;20183;-76
2022/08/20 01:44:49;;;;;;;5.45;3.97;;;23.30;99.90;;;;;;5028733;28;20551;-76
2022/08/20 01:47:18;;;;;;;5.95;4.25;;;23.30;99.90;;;;;;5039147;28;20191;-76
2022/08/20 01:49:53;;;;;;;5.23;4.17;;;23.30;99.90;;;;;;5027789;28;20195;-76
2022/08/20 01:52:54;;;;;;;5.40;4.53;;;23.40;99.90;;;;;;5028698;28;20286;-76
2022/08/20 01:55:20;;;;;;;4.70;4.25;;;23.40;99.90;;;;;;5028474;28;20191;-76
2022/08/20 01:57:47;;;;;;;4.55;4.13;;;23.40;99.90;;;;;;5028286;28;20245;-75
2022/08/20 02:00:18;;;;;;;5.05;4.30;;;23.40;99.90;;;;;;5011523;28;20237;-75
2022/08/20 02:02:44;;;;;;;6.68;3.95;;;23.40;99.90;;;;;;5026097;28;20188;-75
2022/08/20 02:05:12;;;;;;;8.38;4.50;;;23.40;99.90;;;;;;5000383;28;20697;-76
2022/08/20 02:07:39;;;;;;;6.18;4.32;;;23.40;99.90;;;;;;5027771;28;20192;-76
2022/08/20 02:10:10;;;;;;;5.68;4.63;;;23.40;99.90;;;;;;5029093;28;20229;-75
2022/08/20 02:12:38;;;;;;;6.70;4.43;;;23.50;99.90;;;;;;5028849;28;20187;-75
2022/08/20 02:15:08;;;;;;;5.38;4.70;;;23.60;99.90;;;;;;5025457;28;20208;-75
2022/08/20 02:17:35;;;;;;;4.93;4.43;;;23.60;99.90;;;;;;5021994;28;20593;-75
2022/08/20 02:20:13;;;;;;;5.30;4.10;;;23.60;99.90;;;;;;5034387;28;20279;-75
2022/08/20 02:22:52;;;;;;;4.88;4.30;;;23.60;99.90;;;;;;5037203;28;20183;-76
2022/08/20 02:25:23;;;;;;;5.75;4.88;;;23.60;99.90;;;;;;5029601;28;20203;-76
2022/08/20 02:27:53;;;;;;;7.57;4.53;;;23.60;99.90;;;;;;5028731;28;20199;-76
2022/08/20 02:30:32;;;;;;;5.60;4.32;;;23.60;99.90;;;;;;5013615;28;20626;-76
2022/08/20 02:33:05;;;;;;;6.70;5.13;;;23.60;99.90;;;;;;5049452;28;20518;-76
2022/08/20 02:35:32;;;;;;;7.47;5.47;;;23.60;99.90;;;;;;5030837;28;20203;-76
2022/08/20 02:37:58;;;;;;;8.45;5.07;;;23.60;99.90;;;;;;5017958;28;20216;-76
2022/08/20 02:40:30;;;;;;;6.07;5.38;;;23.60;99.90;;;;;;5015818;28;20274;-76
2022/08/20 02:42:57;;;;;;;8.65;4.88;;;23.60;99.90;;;;;;5035259;28;20248;-76
2022/08/20 02:45:24;;;;;;;6.80;5.00;;;23.50;99.90;;;;;;5044178;28;20302;-75
2022/08/20 02:47:54;;;;;;;5.13;4.63;;;23.50;99.90;;;;;;5032476;28;20176;-75
2022/08/20 02:50:24;;;;;;;6.00;5.18;;;23.50;99.90;;;;;;5032254;28;20200;-76
2022/08/20 02:52:53;;;;;;;6.90;4.90;;;23.40;99.90;;;;;;5031856;28;20637;-76
2022/08/20 02:55:21;;;;;;;5.90;4.93;;;23.40;99.90;;;;;;5034195;28;20186;-75
2022/08/20 02:57:48;;;;;;;6.55;5.32;;;23.40;99.90;;;;;;5032170;28;20207;-76
2022/08/20 03:00:20;;;;;;;6.30;5.20;;;23.30;99.90;;;;;;5032391;28;20227;-75
2022/08/20 03:02:47;;;;;;;5.90;5.18;;;23.30;99.90;;;;;;5033598;28;20176;-76
2022/08/20 03:05:14;;;;;;;11.55;5.47;;;23.20;99.90;;;;;;5031379;28;20223;-76
2022/08/20 03:07:47;;;;;;;8.70;5.15;;;23.20;99.90;;;;;;5040673;28;20218;-75
2022/08/20 03:10:16;;;;;;;7.95;4.75;;;23.20;99.90;;;;;;5033215;28;20203;-75
2022/08/20 03:12:42;;;;;;;6.25;4.97;;;23.20;99.90;;;;;;5028614;28;20223;-76
2022/08/20 03:15:10;;;;;;;6.73;5.57;;;23.30;99.90;;;;;;5023186;28;20228;-75
2022/08/20 03:17:37;;;;;;;18.13;8.77;;;23.30;99.90;;;;;;4995764;28;20180;-75
2022/08/20 03:20:08;;;;;;;17.80;9.75;;;23.20;99.90;;;;;;5020317;28;20185;-75
2022/08/20 03:22:34;;;;;;;15.48;9.93;;;23.20;99.90;;;;;;5032894;28;20187;-75
2022/08/20 03:25:01;;;;;;;16.48;9.75;;;23.30;99.90;;;;;;5031199;28;20965;-75
2022/08/20 03:27:27;;;;;;;12.23;8.20;;;23.30;99.90;;;;;;5030409;28;20212;-76
2022/08/20 03:29:56;;;;;;;10.30;6.50;;;23.30;99.90;;;;;;5031588;28;20220;-75
2022/08/20 03:32:22;;;;;;;9.95;5.55;;;23.30;99.90;;;;;;5031407;28;20184;-75
2022/08/20 03:34:49;;;;;;;7.85;5.50;;;23.30;99.90;;;;;;5022436;28;20224;-76
2022/08/20 03:37:16;;;;;;;6.97;4.88;;;23.30;99.90;;;;;;5021759;28;20308;-75
2022/08/20 03:39:42;;;;;;;6.30;4.80;;;23.30;99.90;;;;;;4995421;28;20184;-75
2022/08/20 03:42:09;;;;;;;10.95;5.30;;;23.30;99.90;;;;;;5013631;28;20218;-76
2022/08/20 03:44:36;;;;;;;6.22;5.45;;;23.30;99.90;;;;;;5035905;28;20223;-76
2022/08/20 03:47:08;;;;;;;6.22;4.75;;;23.30;99.90;;;;;;5016007;28;20185;-75
2022/08/20 03:49:35;;;;;;;9.20;5.33;;;23.40;99.90;;;;;;5014714;28;20181;-76
2022/08/20 03:52:03;;;;;;;6.13;4.97;;;23.40;99.90;;;;;;5030626;28;20534;-76
2022/08/20 03:54:31;;;;;;;10.38;5.32;;;23.40;99.90;;;;;;5016111;28;20227;-75
2022/08/20 03:56:57;;;;;;;8.52;5.43;;;23.40;99.90;;;;;;5024574;28;20199;-75
2022/08/20 03:59:24;;;;;;;7.03;5.00;;;23.40;99.90;;;;;;5021085;28;20189;-75
2022/08/20 04:01:51;;;;;;;8.38;5.15;;;23.40;99.90;;;;;;4995079;28;20189;-76
2022/08/20 04:04:18;;;;;;;6.63;4.97;;;23.40;99.90;;;;;;5044527;28;20783;-75
2022/08/20 04:06:46;;;;;;;6.88;4.80;;;23.40;99.90;;;;;;5035363;28;20212;-75
2022/08/20 04:09:14;;;;;;;24.55;5.47;;;23.40;99.90;;;;;;5027412;28;20667;-75
2022/08/20 04:11:41;;;;;;;18.08;5.85;;;23.40;99.90;;;;;;5013191;28;20188;-75
2022/08/20 04:14:09;;;;;;;16.27;5.65;;;23.40;99.90;;;;;;5012239;28;20278;-75
2022/08/20 04:16:36;;;;;;;12.85;5.03;;;23.50;99.90;;;;;;5026031;28;20204;-75
2022/08/20 04:19:03;;;;;;;15.02;5.20;;;23.50;99.90;;;;;;5029562;28;20243;-75
2022/08/20 04:21:31;;;;;;;16.90;5.22;;;23.50;99.90;;;;;;5019045;28;20242;-75
2022/08/20 04:23:58;;;;;;;9.25;5.20;;;23.50;99.90;;;;;;5011526;28;20215;-75
2022/08/20 04:26:24;;;;;;;10.75;5.20;;;23.50;99.90;;;;;;5015887;28;20631;-75
2022/08/20 04:28:51;;;;;;;14.13;5.93;;;23.60;99.90;;;;;;5031034;28;20187;-75
2022/08/20 04:31:18;;;;;;;28.30;6.18;;;23.60;99.90;;;;;;5030408;28;20230;-75
2022/08/20 04:33:44;;;;;;;9.93;5.45;;;23.70;99.90;;;;;;5036213;28;20192;-75
2022/08/20 04:36:11;;;;;;;7.38;5.25;;;23.70;99.90;;;;;;5022744;28;20197;-75
2022/08/20 04:38:38;;;;;;;5.93;4.88;;;23.70;99.90;;;;;;5026266;28;20193;-75
2022/08/20 04:41:04;;;;;;;9.77;5.03;;;23.80;99.90;;;;;;5025046;28;20187;-75
2022/08/20 04:43:34;;;;;;;7.32;4.60;;;23.90;99.90;;;;;;5031883;28;20230;-75
2022/08/20 04:46:08;;;;;;;7.78;5.05;;;23.90;99.90;;;;;;5029639;28;20242;-75
2022/08/20 04:48:37;;;;;;;10.57;5.05;;;24.00;99.90;;;;;;5031693;28;20268;-75
2022/08/20 04:51:06;;;;;;;6.63;4.88;;;24.10;99.90;;;;;;5029349;28;20220;-75
2022/08/20 04:53:33;;;;;;;8.60;5.18;;;24.10;99.90;;;;;;5061446;28;20238;-75
2022/08/20 04:56:01;;;;;;;6.13;5.15;;;24.20;99.90;;;;;;5029393;28;20176;-75
2022/08/20 04:58:33;;;;;;;10.05;5.40;;;24.30;99.90;;;;;;5031374;28;20180;-75
2022/08/20 05:01:05;;;;;;;7.32;4.97;;;24.30;99.90;;;;;;5013408;28;20187;-76
2022/08/20 05:03:33;;;;;;;6.63;5.32;;;24.40;99.90;;;;;;5036625;28;20187;-76
2022/08/20 05:06:00;;;;;;;7.25;5.10;;;24.50;99.90;;;;;;5023588;28;20216;-76
2022/08/20 05:08:28;;;;;;;8.07;5.45;;;24.50;99.90;;;;;;5023676;28;20212;-76
2022/08/20 05:10:56;;;;;;;6.95;5.20;;;24.60;99.90;;;;;;5025865;28;20188;-76
2022/08/20 05:13:23;;;;;;;5.80;5.00;;;24.70;99.90;;;;;;5029437;28;20184;-76
2022/08/20 05:15:50;;;;;;;6.32;5.07;;;24.70;99.90;;;;;;5023817;28;20274;-75
2022/08/20 05:18:21;;;;;;;6.32;5.53;;;24.70;99.90;;;;;;5049715;28;20531;-76
2022/08/20 05:20:49;;;;;;;8.45;5.45;;;24.80;99.90;;;;;;5042693;28;20191;-76
2022/08/20 05:23:19;;;;;;;6.07;5.25;;;24.90;99.90;;;;;;5032380;28;20219;-76
2022/08/20 05:25:51;;;;;;;6.85;4.88;;;24.90;99.90;;;;;;5019004;28;20213;-76
2022/08/20 05:28:23;;;;;;;6.32;5.22;;;25.00;99.90;;;;;;5029538;28;20190;-76
2022/08/20 05:30:52;;;;;;;5.93;4.80;;;25.00;99.90;;;;;;5013200;28;20891;-76
2022/08/20 05:33:22;;;;;;;5.90;4.85;;;25.10;99.90;;;;;;5045009;28;20715;-76
2022/08/20 05:35:51;;;;;;;8.70;5.15;;;25.20;99.90;;;;;;5040944;28;20187;-76
2022/08/20 05:38:23;;;;;;;5.10;4.57;;;25.20;99.90;;;;;;5012632;28;20557;-76
2022/08/20 05:40:51;;;;;;;8.02;4.68;;;25.30;99.90;;;;;;5029629;28;20192;-76
2022/08/20 05:43:19;;;;;;;5.22;4.72;;;25.30;99.90;;;;;;5030276;28;20196;-76
2022/08/20 05:45:51;;;;;;;6.55;4.90;;;25.40;99.90;;;;;;5028550;28;20211;-73
2022/08/20 05:48:22;;;;;;;5.63;4.72;;;25.50;99.90;;;;;;5013751;28;20214;-76
2022/08/20 05:50:53;;;;;;;7.82;4.90;;;25.50;99.90;;;;;;4998413;28;20177;-73
2022/08/20 05:53:20;;;;;;;5.97;4.65;;;25.50;99.90;;;;;;5008993;28;20511;-76
2022/08/20 05:55:48;;;;;;;4.63;4.18;;;25.50;99.90;;;;;;5021810;28;20503;-74
2022/08/20 05:58:32;;;;;;;5.90;4.45;;;25.60;99.90;;;;;;5026636;28;20184;-74
2022/08/20 06:00:59;;;;;;;5.10;4.40;;;25.60;99.90;;;;;;5012338;28;20691;-74
2022/08/20 06:06:11;;;;;;;6.20;4.50;;;25.80;99.90;;;;;;5043025;28;20750;-74
2022/08/20 06:08:38;;;;;;;12.13;4.90;;;25.90;99.90;;;;;;5024415;28;20199;-74
2022/08/20 06:11:05;;;;;;;5.75;4.47;;;25.90;99.90;;;;;;5024217;28;20187;-74
2022/08/20 06:13:31;;;;;;;7.90;4.78;;;26.00;99.90;;;;;;5028377;28;20585;-74
2022/08/20 06:15:58;;;;;;;5.22;4.72;;;26.00;99.90;;;;;;5044354;28;20187;-74
2022/08/20 06:18:24;;;;;;;10.73;5.03;;;26.10;99.90;;;;;;4998866;28;20226;-74
2022/08/20 06:20:51;;;;;;;5.53;4.78;;;26.10;99.90;;;;;;5023130;28;20215;-74
2022/08/20 06:23:19;;;;;;;7.82;4.85;;;26.20;99.90;;;;;;4994703;28;20238;-74
2022/08/20 06:25:48;;;;;;;8.63;5.05;;;26.30;99.90;;;;;;5008045;28;20216;-74
2022/08/20 06:28:15;;;;;;;6.65;4.60;;;26.40;99.90;;;;;;5042188;28;20188;-74
2022/08/20 06:30:42;;;;;;;5.30;4.47;;;26.40;99.90;;;;;;5031554;28;20189;-75
2022/08/20 06:33:08;;;;;;;7.30;4.72;;;26.50;99.90;;;;;;5044974;28;20180;-75
2022/08/20 06:35:36;;;;;;;9.38;4.68;;;26.60;99.90;;;;;;5027376;28;20184;-75
2022/08/20 06:38:04;;;;;;;11.60;4.55;;;26.70;99.90;;;;;;5039448;28;20249;-74
2022/08/20 06:40:33;;;;;;;5.63;5.00;;;26.80;99.90;;;;;;5012839;28;20198;-74
2022/08/20 06:43:00;;;;;;;5.70;5.10;;;26.90;99.90;;;;;;5029473;28;20185;-74
2022/08/20 06:45:31;;;;;;;11.95;4.70;;;27.00;99.90;;;;;;5029026;28;20215;-74
2022/08/20 06:48:04;;;;;;;5.60;4.53;;;27.20;99.90;;;;;;5020466;28;20211;-74
2022/08/20 06:50:38;;;;;;;7.13;4.65;;;27.30;99.90;;;;;;5024795;28;20275;-74
2022/08/20 06:53:11;;;;;;;7.53;4.70;;;27.40;99.90;;;;;;5020857;28;20215;-74
2022/08/20 06:55:44;;;;;;;9.52;5.60;;;27.40;99.90;;;;;;4991898;28;20235;-74
2022/08/20 06:58:12;;;;;;;5.43;4.93;;;27.70;99.90;;;;;;5024626;28;20192;-75
2022/08/20 07:00:43;;;;;;;6.68;5.20;;;27.80;99.90;;;;;;5025559;28;20196;-74
2022/08/20 07:03:11;;;;;;;5.82;5.22;;;27.90;99.90;;;;;;5027627;28;20685;-74
2022/08/20 07:05:41;;;;;;;17.30;6.00;;;28.00;99.90;;;;;;5021810;28;20709;-74
2022/08/20 07:08:13;;;;;;;10.55;5.45;;;28.00;99.90;;;;;;4995773;28;20749;-75
2022/08/20 07:10:43;;;;;;;6.90;5.63;;;28.10;99.90;;;;;;4991886;28;20177;-75
2022/08/20 07:13:11;;;;;;;8.98;5.43;;;28.10;99.90;;;;;;5026999;28;20184;-74
2022/08/20 07:15:38;;;;;;;6.55;5.47;;;28.30;99.90;;;;;;4998905;28;20197;-74
2022/08/20 07:18:06;;;;;;;9.35;5.40;;;28.40;99.90;;;;;;5006077;28;20223;-74
2022/08/20 07:20:37;;;;;;;7.18;5.50;;;28.40;99.90;;;;;;5028921;28;20191;-75
2022/08/20 07:23:03;;;;;;;9.98;5.40;;;28.40;99.90;;;;;;5026917;28;20227;-74
2022/08/20 07:25:32;;;;;;;11.43;5.60;;;28.50;99.90;;;;;;5023156;28;20228;-74
2022/08/20 07:28:06;;;;;;;7.53;4.80;;;28.60;99.90;;;;;;5030336;28;20833;-74
2022/08/20 07:33:19;;;;;;;6.43;4.85;;;28.50;99.90;;;;;;5032433;28;20283;-75
2022/08/20 07:35:47;;;;;;;6.35;4.80;;;28.60;99.90;;;;;;5049948;28;20238;-75
2022/08/20 07:38:24;;;;;;;7.25;5.53;;;28.60;99.90;;;;;;5051328;28;20278;-74
2022/08/20 07:41:08;;;;;;;12.63;5.82;;;28.70;99.90;;;;;;5031211;28;20203;-74
2022/08/20 07:43:35;;;;;;;8.30;5.50;;;28.80;99.90;;;;;;5004063;28;20200;-74
2022/08/20 07:46:07;;;;;;;10.48;5.60;;;28.90;99.90;;;;;;5034286;28;20211;-75
2022/08/20 07:48:40;;;;;;;8.18;6.07;;;29.00;99.90;;;;;;5042917;28;20202;-74
2022/08/20 07:51:11;;;;;;;8.32;6.15;;;29.10;99.90;;;;;;5050438;28;20262;-74
2022/08/20 07:53:40;;;;;;;9.50;6.03;;;29.30;99.90;;;;;;5051588;28;20176;-75
2022/08/20 07:56:11;;;;;;;11.75;6.32;;;29.30;99.90;;;;;;5047939;28;20195;-75
2022/08/20 07:58:48;;;;;;;12.38;6.20;;;29.30;99.90;;;;;;5041425;28;20677;-74
2022/08/20 08:01:30;;;;;;;11.68;6.10;;;29.40;99.90;;;;;;5058147;28;20200;-74
2022/08/20 08:03:59;;;;;;;9.25;6.32;;;29.50;99.90;;;;;;5031317;28;20202;-75
2022/08/20 08:06:27;;;;;;;9.63;6.45;;;29.50;99.90;;;;;;5016523;28;20602;-74
2022/08/20 08:09:13;;;;;;;13.75;6.63;;;29.70;99.90;;;;;;5056926;28;20188;-74
2022/08/20 08:11:49;;;;;;;10.45;6.22;;;29.70;99.90;;;;;;5034606;28;20536;-74
2022/08/20 08:14:40;;;;;;;9.23;6.47;;;29.70;99.90;;;;;;4993748;28;20197;-75
2022/08/20 08:17:08;;;;;;;11.15;6.43;;;29.80;99.90;;;;;;5020464;28;20192;-75
2022/08/20 08:19:49;;;;;;;9.27;6.10;;;29.90;99.90;;;;;;5030309;28;20223;-74
2022/08/20 08:22:18;;;;;;;10.98;6.72;;;30.00;99.90;;;;;;5000166;28;20250;-75
2022/08/20 08:24:46;;;;;;;11.73;6.80;;;30.10;99.90;;;;;;5043011;28;20181;-75
2022/08/20 08:27:17;;;;;;;9.95;6.68;;;30.20;99.90;;;;;;5028445;28;20622;-75
2022/08/20 08:29:45;;;;;;;11.95;6.47;;;30.10;99.90;;;;;;5029902;28;20506;-74
2022/08/20 08:32:12;;;;;;;11.68;6.07;;;30.30;99.90;;;;;;5033808;28;20529;-75
2022/08/20 08:34:39;;;;;;;10.45;6.45;;;30.30;99.90;;;;;;5033676;28;20188;-75
2022/08/20 08:37:05;;;;;;;10.10;6.47;;;30.30;99.90;;;;;;5027324;28;20197;-76
2022/08/20 08:39:33;;;;;;;13.35;6.80;;;30.40;99.90;;;;;;5010091;28;20506;-75
2022/08/20 08:42:03;;;;;;;10.73;6.65;;;30.40;99.90;;;;;;5024764;28;20197;-75
2022/08/20 08:44:40;;;;;;;15.80;6.18;;;30.40;99.90;;;;;;5024993;28;20280;-75
2022/08/20 08:47:20;;;;;;;11.30;6.65;;;30.50;99.90;;;;;;5024181;28;20204;-76
2022/08/20 08:49:47;;;;;;;12.60;6.82;;;30.60;99.90;;;;;;5025121;28;20267;-75
2022/08/20 08:52:21;;;;;;;10.88;6.55;;;30.70;99.90;;;;;;5029345;28;20271;-75
2022/08/20 08:54:54;;;;;;;9.70;6.82;;;30.80;99.90;;;;;;5029056;28;20176;-74
2022/08/20 08:57:22;;;;;;;13.38;6.78;;;30.90;99.90;;;;;;5029500;28;20196;-74
2022/08/20 09:00:16;;;;;;;14.50;6.65;;;30.90;99.90;;;;;;5014267;28;20199;-75
2022/08/20 09:03:11;;;;;;;11.57;6.93;;;30.90;99.90;;;;;;5017927;28;21064;-75
2022/08/20 09:05:51;;;;;;;16.52;7.25;;;31.00;99.90;;;;;;5027681;28;20572;-75
2022/08/20 09:08:26;;;;;;;9.43;6.85;;;31.00;99.90;;;;;;5045885;28;20187;-75
2022/08/20 09:10:52;;;;;;;16.60;8.00;;;31.10;99.90;;;;;;5049019;28;20260;-75
2022/08/20 09:13:19;;;;;;;13.68;7.80;;;31.20;99.90;;;;;;5016609;28;20187;-75
2022/08/20 09:15:49;;;;;;;13.18;7.68;;;31.30;99.90;;;;;;5033665;28;20199;-75
2022/08/20 09:18:18;;;;;;;14.35;7.53;;;31.30;99.90;;;;;;5031422;28;20179;-75
2022/08/20 09:20:44;;;;;;;18.83;7.45;;;31.30;99.90;;;;;;5010589;28;20184;-74
2022/08/20 09:23:11;;;;;;;12.80;7.47;;;31.40;99.90;;;;;;5026262;28;20642;-75
2022/08/20 09:25:37;;;;;;;13.35;7.35;;;31.50;99.90;;;;;;5027568;28;20212;-74
2022/08/20 09:28:04;;;;;;;15.38;7.38;;;31.50;99.90;;;;;;5027715;28;20189;-75
2022/08/20 09:30:30;;;;;;;15.50;7.95;;;31.60;99.90;;;;;;5041301;28;20290;-75
2022/08/20 09:33:00;;;;;;;12.48;7.30;;;31.60;99.90;;;;;;5050927;28;20636;-75
2022/08/20 09:35:28;;;;;;;19.98;7.78;;;31.70;99.90;;;;;;5035201;28;20197;-75
2022/08/20 09:37:54;;;;;;;10.50;7.03;;;31.80;99.90;;;;;;5021235;28;20196;-75
2022/08/20 09:40:21;;;;;;;12.65;7.65;;;31.90;99.90;;;;;;5053020;28;20193;-75
2022/08/20 09:42:50;;;;;;;13.55;7.45;;;31.90;99.90;;;;;;5010198;28;20192;-74
2022/08/20 09:45:17;;;;;;;12.75;7.30;;;32.00;99.90;;;;;;5041388;28;20882;-74
2022/08/20 09:47:47;;;;;;;11.20;7.93;;;32.10;99.90;;;;;;5008713;28;20192;-75
2022/08/20 09:50:13;;;;;;;14.85;7.38;;;32.10;99.90;;;;;;5024013;28;20192;-74
2022/08/20 09:52:49;;;;;;;9.80;7.35;;;32.10;99.90;;;;;;5005512;28;20192;-74
2022/08/20 09:55:30;;;;;;;19.90;7.93;;;32.20;99.90;;;;;;5025553;28;20199;-75
2022/08/20 09:57:58;;;;;;;11.02;7.28;;;32.20;99.90;;;;;;5040731;28;20210;-76
2022/08/20 10:00:25;;;;;;;8.88;6.95;;;32.30;99.90;;;;;;5033227;28;20184;-75
2022/08/20 10:02:52;;;;;;;11.05;7.20;;;32.40;99.90;;;;;;5012613;28;20222;-75
2022/08/20 10:05:18;;;;;;;9.82;7.57;;;32.40;99.90;;;;;;5008977;28;20227;-74
2022/08/20 10:07:45;;;;;;;15.10;7.15;;;32.50;99.90;;;;;;5043019;28;20188;-75
2022/08/20 10:11:01;;;;;;;17.13;7.07;;;32.60;99.90;;;;;;5024667;28;20211;-75
2022/08/20 10:13:27;;;;;;;11.30;7.18;;;32.60;99.90;;;;;;5022273;28;20246;-75
2022/08/20 10:15:54;;;;;;;10.70;7.25;;;32.60;99.90;;;;;;5027092;28;20278;-75
2022/08/20 10:18:20;;;;;;;11.73;7.65;;;32.70;99.90;;;;;;5026127;28;20187;-75
2022/08/20 10:20:47;;;;;;;14.15;8.05;;;32.70;99.90;;;;;;5008506;28;20188;-75
2022/08/20 10:23:13;;;;;;;11.15;7.25;;;32.90;99.90;;;;;;5028840;28;20188;-74
2022/08/20 10:25:42;;;;;;;11.10;7.60;;;33.00;99.90;;;;;;5029663;28;20230;-75
2022/08/20 10:28:12;;;;;;;17.23;8.00;;;33.10;99.90;;;;;;5053013;28;20268;-75
2022/08/20 10:30:38;;;;;;;10.20;7.50;;;32.90;99.90;;;;;;5006982;28;20184;-75
2022/08/20 10:33:05;;;;;;;19.33;7.43;;;32.80;99.90;;;;;;5027098;28;20186;-75
2022/08/20 10:35:31;;;;;;;17.83;8.05;;;32.90;99.90;;;;;;5026013;28;20657;-75
2022/08/20 10:38:01;;;;;;;12.35;8.05;;;32.90;99.90;;;;;;5041247;28;20191;-75
2022/08/20 10:40:28;;;;;;;11.40;8.02;;;32.80;99.90;;;;;;5006980;28;20180;-75
2022/08/20 10:42:54;;;;;;;13.48;7.43;;;32.70;99.90;;;;;;5042140;28;20889;-76
2022/08/20 10:45:20;;;;;;;13.02;7.60;;;32.70;99.90;;;;;;5027004;28;20755;-75
2022/08/20 10:47:47;;;;;;;16.05;7.25;;;32.80;99.90;;;;;;5027766;28;20191;-75
2022/08/20 10:50:16;;;;;;;12.93;7.18;;;33.10;99.90;;;;;;5031154;28;20238;-75
2022/08/20 10:52:43;;;;;;;11.15;7.32;;;33.20;99.90;;;;;;5014361;28;20553;-75
2022/08/20 10:55:10;;;;;;;14.90;7.47;;;33.40;99.90;;;;;;5026637;28;20180;-74
2022/08/20 10:57:41;;;;;;;13.38;7.90;;;33.30;99.90;;;;;;5031299;28;20185;-75
2022/08/20 11:00:10;;;;;;;10.93;7.80;;;33.10;99.90;;;;;;5013665;28;20271;-74
2022/08/20 11:02:37;;;;;;;12.63;6.95;;;33.20;99.90;;;;;;5027115;28;20543;-74
2022/08/20 11:05:05;;;;;;;18.95;7.20;;;33.20;99.90;;;;;;5008495;28;20278;-74
2022/08/20 11:07:39;;;;;;;15.15;7.85;;;33.10;99.90;;;;;;5031296;28;20176;-75
2022/08/20 11:10:09;;;;;;;20.05;7.45;;;33.10;99.90;;;;;;5034421;28;20199;-75
2022/08/20 11:12:35;;;;;;;16.55;7.10;;;33.30;99.90;;;;;;5006581;28;20203;-74
2022/08/20 11:15:02;;;;;;;15.63;8.15;;;33.20;99.90;;;;;;5012816;28;20570;-74
2022/08/20 11:17:33;;;;;;;12.55;7.50;;;33.20;99.90;;;;;;5030406;28;20245;-74
2022/08/20 11:20:03;;;;;;;13.90;7.97;;;33.20;99.90;;;;;;5025327;28;20189;-74
2022/08/20 11:22:30;;;;;;;11.63;7.70;;;33.20;99.90;;;;;;5055797;28;20185;-74
2022/08/20 11:24:56;;;;;;;12.25;7.43;;;33.10;99.90;;;;;;5046492;28;20181;-74
2022/08/20 11:27:31;;;;;;;12.20;7.20;;;33.00;99.90;;;;;;5030490;28;20235;-75
2022/08/20 11:29:58;;;;;;;18.23;8.27;;;32.90;99.90;;;;;;5002850;28;21453;-76
2022/08/20 11:32:25;;;;;;;16.27;7.95;;;33.00;99.90;;;;;;5029095;28;20239;-74
2022/08/20 11:34:53;;;;;;;14.40;8.13;;;32.90;99.90;;;;;;5025343;28;20668;-74
2022/08/20 11:37:22;;;;;;;17.10;8.10;;;32.90;99.90;;;;;;5050341;28;20196;-75
2022/08/20 11:39:49;;;;;;;15.00;8.68;;;33.00;99.90;;;;;;5012711;28;20271;-74
2022/08/20 11:42:15;;;;;;;10.98;7.60;;;32.90;99.90;;;;;;5038076;28;20192;-74
2022/08/20 11:44:42;;;;;;;17.33;7.95;;;32.90;99.90;;;;;;5059650;28;20247;-74
2022/08/20 11:47:26;;;;;;;15.15;8.05;;;33.00;99.90;;;;;;5013393;28;20616;-75
2022/08/20 11:50:13;;;;;;;19.65;8.00;;;33.00;99.90;;;;;;5029191;28;20607;-74
2022/08/20 11:52:43;;;;;;;13.93;7.38;;;33.00;99.90;;;;;;5020376;28;20184;-74
2022/08/20 11:55:12;;;;;;;14.93;7.72;;;33.00;99.90;;;;;;5026188;28;20688;-74
2022/08/20 11:57:44;;;;;;;13.57;7.90;;;33.10;99.90;;;;;;5013231;28;20709;-74
2022/08/20 12:00:20;;;;;;;13.43;8.48;;;33.10;99.90;;;;;;5012883;28;20561;-73
2022/08/20 12:02:50;;;;;;;14.20;7.20;;;33.00;99.90;;;;;;5025844;28;20207;-75
2022/08/20 12:05:18;;;;;;;11.48;7.28;;;32.90;99.90;;;;;;5029733;28;20212;-74
2022/08/20 12:07:47;;;;;;;12.38;7.15;;;33.00;99.90;;;;;;5030381;28;20184;-74
2022/08/20 12:10:15;;;;;;;9.68;6.47;;;32.90;99.90;;;;;;5036912;28;20535;-74
2022/08/20 12:12:41;;;;;;;16.17;7.60;;;32.90;99.90;;;;;;5027953;28;20196;-75
2022/08/20 12:15:10;;;;;;;11.70;7.18;;;32.90;99.90;;;;;;5045731;28;20200;-75
2022/08/20 12:17:37;;;;;;;11.90;6.82;;;33.00;99.90;;;;;;5055301;28;20238;-74
2022/08/20 12:20:11;;;;;;;13.50;6.93;;;32.90;99.90;;;;;;5026386;28;20666;-74
2022/08/20 12:22:40;;;;;;;11.02;6.90;;;32.80;99.90;;;;;;5038703;28;20271;-74
2022/08/20 12:25:08;;;;;;;13.45;7.22;;;32.80;99.90;;;;;;5026213;28;20185;-74
2022/08/20 12:27:36;;;;;;;10.40;6.68;;;32.90;99.90;;;;;;5029083;28;20185;-74
2022/08/20 12:30:09;;;;;;;12.57;7.22;;;32.90;99.90;;;;;;5030563;28;20242;-74
2022/08/20 12:32:43;;;;;;;12.20;7.00;;;32.90;99.90;;;;;;5024613;28;20926;-75
2022/08/20 12:35:12;;;;;;;14.60;7.22;;;32.90;99.90;;;;;;5006597;28;20188;-76
2022/08/20 12:37:39;;;;;;;17.60;7.13;;;32.90;99.90;;;;;;5003136;28;20716;-75
2022/08/20 12:40:14;;;;;;;14.90;6.88;;;32.80;99.90;;;;;;5023713;28;20611;-75
2022/08/20 12:42:41;;;;;;;14.45;6.63;;;32.80;99.90;;;;;;5055290;28;20198;-75
2022/08/20 12:45:09;;;;;;;13.75;6.85;;;32.90;99.90;;;;;;5052270;28;20223;-75
2022/08/20 12:47:41;;;;;;;15.70;7.30;;;32.80;99.90;;;;;;5020187;28;20199;-74
2022/08/20 12:50:17;;;;;;;11.88;7.18;;;32.90;99.90;;;;;;5029515;28;20176;-75
2022/08/20 12:52:44;;;;;;;10.35;6.65;;;32.80;99.90;;;;;;5031011;28;20203;-74
2022/08/20 12:55:14;;;;;;;11.15;6.38;;;32.70;99.90;;;;;;5049263;28;20592;-75
2022/08/20 12:57:58;;;;;;;10.15;6.93;;;32.80;99.90;;;;;;5044459;28;20633;-75
2022/08/20 13:00:43;;;;;;;12.68;6.25;;;32.70;99.90;;;;;;5011034;28;20168;-74
2022/08/20 13:03:11;;;;;;;13.43;5.82;;;32.80;99.90;;;;;;5018785;28;20211;-75
2022/08/20 13:05:41;;;;;;;11.77;5.80;;;32.90;99.90;;;;;;5021738;28;20699;-75